sensor_id;sensor_type;location;lat;lon;timestamp;temperature;humidity
74458;SHT31;62896;51.032;3.712;2022-09-21T00:01:21;10.6;90
74458;SHT31;62896;51.032;3.712;2022-09-21T00:04:40;10.6;90
74458;SHT31;62896;51.032;3.712;2022-09-21T00:08:00;10.6;90
74458;SHT31;62896;51.032;3.712;2022-09-21T00:11:21;10.6;90
74458;SHT31;62896;51.032;3.712;2022-09-21T00:14:41;10.6;90
74458;SHT31;62896;51.032;3.712;2022-09-21T00:18:00;10.6;90
74458;SHT31;62896;51.032;3.712;2022-09-21T00:21:20;10.6;90
74458;SHT31;62896;51.032;3.712;2022-09-21T00:24:40;10.6;90
74458;SHT31;62896;51.032;3.712;2022-09-21T00:28:00;10.6;90
74458;SHT31;62896;51.032;3.712;2022-09-21T00:31:20;10.5;90
74458;SHT31;62896;51.032;3.712;2022-09-21T00:34:40;10.5;90
74458;SHT31;62896;51.032;3.712;2022-09-21T00:38:00;10.5;90
74458;SHT31;62896;51.032;3.712;2022-09-21T00:41:20;10.3;91
74458;SHT31;62896;51.032;3.712;2022-09-21T00:44:40;10.3;91
74458;SHT31;62896;51.032;3.712;2022-09-21T00:48:00;10.3;91
74458;SHT31;62896;51.032;3.712;2022-09-21T00:51:20;10.3;91
74458;SHT31;62896;51.032;3.712;2022-09-21T00:54:40;10.3;91
74458;SHT31;62896;51.032;3.712;2022-09-21T00:58:00;10.3;91
74458;SHT31;62896;51.032;3.712;2022-09-21T01:01:20;10.3;91
74458;SHT31;62896;51.032;3.712;2022-09-21T01:04:40;10.3;91
74458;SHT31;62896;51.032;3.712;2022-09-21T01:08:00;10.3;91
74458;SHT31;62896;51.032;3.712;2022-09-21T01:11:23;10.2;91
74458;SHT31;62896;51.032;3.712;2022-09-21T01:14:46;10.2;91
74458;SHT31;62896;51.032;3.712;2022-09-21T01:18:02;10.2;91
74458;SHT31;62896;51.032;3.712;2022-09-21T01:21:20;10;91
74458;SHT31;62896;51.032;3.712;2022-09-21T01:24:44;10;91
74458;SHT31;62896;51.032;3.712;2022-09-21T01:28:03;10;91
74458;SHT31;62896;51.032;3.712;2022-09-21T01:31:20;9.9;91
74458;SHT31;62896;51.032;3.712;2022-09-21T01:34:41;9.9;91
74458;SHT31;62896;51.032;3.712;2022-09-21T01:38:00;9.9;91
74458;SHT31;62896;51.032;3.712;2022-09-21T01:41:20;9.7;92
74458;SHT31;62896;51.032;3.712;2022-09-21T01:44:40;9.7;92
74458;SHT31;62896;51.032;3.712;2022-09-21T01:48:00;9.7;92
74458;SHT31;62896;51.032;3.712;2022-09-21T01:51:20;9.7;92
74458;SHT31;62896;51.032;3.712;2022-09-21T01:54:41;9.7;92
74458;SHT31;62896;51.032;3.712;2022-09-21T01:58:01;9.7;92
74458;SHT31;62896;51.032;3.712;2022-09-21T02:01:20;9.6;92
74458;SHT31;62896;51.032;3.712;2022-09-21T02:04:40;9.6;92
74458;SHT31;62896;51.032;3.712;2022-09-21T02:08:00;9.6;92
74458;SHT31;62896;51.032;3.712;2022-09-21T02:11:21;9.5;92
74458;SHT31;62896;51.032;3.712;2022-09-21T02:14:40;9.5;92
74458;SHT31;62896;51.032;3.712;2022-09-21T02:18:01;9.5;92
74458;SHT31;62896;51.032;3.712;2022-09-21T02:21:22;9.5;92
74458;SHT31;62896;51.032;3.712;2022-09-21T02:24:40;9.5;92
74458;SHT31;62896;51.032;3.712;2022-09-21T02:28:00;9.5;92
74458;SHT31;62896;51.032;3.712;2022-09-21T02:31:21;9.3;92
74458;SHT31;62896;51.032;3.712;2022-09-21T02:34:42;9.3;92
74458;SHT31;62896;51.032;3.712;2022-09-21T02:38:01;9.3;92
74458;SHT31;62896;51.032;3.712;2022-09-21T02:41:22;9.4;91
74458;SHT31;62896;51.032;3.712;2022-09-21T02:44:41;9.4;91
74458;SHT31;62896;51.032;3.712;2022-09-21T02:48:01;9.4;91
74458;SHT31;62896;51.032;3.712;2022-09-21T02:51:20;9.4;91
74458;SHT31;62896;51.032;3.712;2022-09-21T02:54:40;9.4;91
74458;SHT31;62896;51.032;3.712;2022-09-21T02:58:00;9.4;91
74458;SHT31;62896;51.032;3.712;2022-09-21T03:01:20;9.2;92
74458;SHT31;62896;51.032;3.712;2022-09-21T03:04:40;9.2;92
74458;SHT31;62896;51.032;3.712;2022-09-21T03:07:59;9.2;92
74458;SHT31;62896;51.032;3.712;2022-09-21T03:11:19;9.2;92
74458;SHT31;62896;51.032;3.712;2022-09-21T03:14:39;9.2;92
74458;SHT31;62896;51.032;3.712;2022-09-21T03:17:59;9.2;92
74458;SHT31;62896;51.032;3.712;2022-09-21T03:21:19;9.1;92
74458;SHT31;62896;51.032;3.712;2022-09-21T03:24:39;9.1;92
74458;SHT31;62896;51.032;3.712;2022-09-21T03:27:59;9.1;92
74458;SHT31;62896;51.032;3.712;2022-09-21T03:31:20;9.1;92
74458;SHT31;62896;51.032;3.712;2022-09-21T03:34:39;9.1;92
74458;SHT31;62896;51.032;3.712;2022-09-21T03:38:00;9.1;92
74458;SHT31;62896;51.032;3.712;2022-09-21T03:41:19;9;92
74458;SHT31;62896;51.032;3.712;2022-09-21T03:44:39;9;92
74458;SHT31;62896;51.032;3.712;2022-09-21T03:48:00;9;92
74458;SHT31;62896;51.032;3.712;2022-09-21T03:51:19;9.1;92
74458;SHT31;62896;51.032;3.712;2022-09-21T03:54:39;9.1;92
74458;SHT31;62896;51.032;3.712;2022-09-21T03:57:59;9.1;92
74458;SHT31;62896;51.032;3.712;2022-09-21T04:01:19;9;92
74458;SHT31;62896;51.032;3.712;2022-09-21T04:04:39;9;92
74458;SHT31;62896;51.032;3.712;2022-09-21T04:07:59;9;92
74458;SHT31;62896;51.032;3.712;2022-09-21T04:11:19;9;92
74458;SHT31;62896;51.032;3.712;2022-09-21T04:14:39;9;92
74458;SHT31;62896;51.032;3.712;2022-09-21T04:17:59;9;92
74458;SHT31;62896;51.032;3.712;2022-09-21T04:21:19;8.9;92
74458;SHT31;62896;51.032;3.712;2022-09-21T04:24:39;8.9;92
74458;SHT31;62896;51.032;3.712;2022-09-21T04:27:59;8.9;92
74458;SHT31;62896;51.032;3.712;2022-09-21T04:31:19;9;92
74458;SHT31;62896;51.032;3.712;2022-09-21T04:34:39;9;92
74458;SHT31;62896;51.032;3.712;2022-09-21T04:37:59;9;92
74458;SHT31;62896;51.032;3.712;2022-09-21T04:41:19;8.9;92
74458;SHT31;62896;51.032;3.712;2022-09-21T04:44:39;8.9;92
74458;SHT31;62896;51.032;3.712;2022-09-21T04:47:59;8.9;92
74458;SHT31;62896;51.032;3.712;2022-09-21T04:51:19;8.9;92
74458;SHT31;62896;51.032;3.712;2022-09-21T04:54:39;8.9;92
74458;SHT31;62896;51.032;3.712;2022-09-21T04:57:59;8.9;92
74458;SHT31;62896;51.032;3.712;2022-09-21T05:01:19;8.8;92
74458;SHT31;62896;51.032;3.712;2022-09-21T05:04:39;8.8;92
74458;SHT31;62896;51.032;3.712;2022-09-21T05:07:59;8.8;92
74458;SHT31;62896;51.032;3.712;2022-09-21T05:11:19;8.8;92
74458;SHT31;62896;51.032;3.712;2022-09-21T05:14:39;8.8;92
74458;SHT31;62896;51.032;3.712;2022-09-21T05:17:59;8.8;92
74458;SHT31;62896;51.032;3.712;2022-09-21T05:21:19;8.7;92
74458;SHT31;62896;51.032;3.712;2022-09-21T05:24:39;8.7;92
74458;SHT31;62896;51.032;3.712;2022-09-21T05:27:59;8.7;92
74458;SHT31;62896;51.032;3.712;2022-09-21T05:31:25;8.7;92
74458;SHT31;62896;51.032;3.712;2022-09-21T05:34:42;8.7;92
74458;SHT31;62896;51.032;3.712;2022-09-21T05:38:00;8.7;92
74458;SHT31;62896;51.032;3.712;2022-09-21T05:41:20;8.7;92
74458;SHT31;62896;51.032;3.712;2022-09-21T05:44:39;8.7;92
74458;SHT31;62896;51.032;3.712;2022-09-21T05:48:03;8.7;92
74458;SHT31;62896;51.032;3.712;2022-09-21T05:51:22;8.7;92
74458;SHT31;62896;51.032;3.712;2022-09-21T05:54:43;8.7;92
74458;SHT31;62896;51.032;3.712;2022-09-21T05:58:01;8.7;92
74458;SHT31;62896;51.032;3.712;2022-09-21T06:01:23;8.8;92
74458;SHT31;62896;51.032;3.712;2022-09-21T06:04:39;8.8;92
74458;SHT31;62896;51.032;3.712;2022-09-21T06:07:59;8.8;92
74458;SHT31;62896;51.032;3.712;2022-09-21T06:11:19;9.2;91
74458;SHT31;62896;51.032;3.712;2022-09-21T06:14:39;9.2;91
74458;SHT31;62896;51.032;3.712;2022-09-21T06:17:59;9.2;91
74458;SHT31;62896;51.032;3.712;2022-09-21T06:21:19;9.7;89
74458;SHT31;62896;51.032;3.712;2022-09-21T06:24:39;9.7;89
74458;SHT31;62896;51.032;3.712;2022-09-21T06:28:01;9.7;89
74458;SHT31;62896;51.032;3.712;2022-09-21T06:31:19;9.6;90
74458;SHT31;62896;51.032;3.712;2022-09-21T06:34:39;9.6;90
74458;SHT31;62896;51.032;3.712;2022-09-21T06:38:00;9.6;90
74458;SHT31;62896;51.032;3.712;2022-09-21T06:41:19;9.7;90
74458;SHT31;62896;51.032;3.712;2022-09-21T06:44:39;9.7;90
74458;SHT31;62896;51.032;3.712;2022-09-21T06:47:59;9.7;90
74458;SHT31;62896;51.032;3.712;2022-09-21T06:51:19;10.7;88
74458;SHT31;62896;51.032;3.712;2022-09-21T06:54:39;10.7;88
74458;SHT31;62896;51.032;3.712;2022-09-21T06:57:59;10.7;88
74458;SHT31;62896;51.032;3.712;2022-09-21T07:01:19;10.5;87
74458;SHT31;62896;51.032;3.712;2022-09-21T07:04:39;10.5;87
74458;SHT31;62896;51.032;3.712;2022-09-21T07:07:59;10.5;87
74458;SHT31;62896;51.032;3.712;2022-09-21T07:11:19;10.7;88
74458;SHT31;62896;51.032;3.712;2022-09-21T07:14:39;10.7;88
74458;SHT31;62896;51.032;3.712;2022-09-21T07:17:59;10.7;88
74458;SHT31;62896;51.032;3.712;2022-09-21T07:21:20;11;88
74458;SHT31;62896;51.032;3.712;2022-09-21T07:24:39;11;88
74458;SHT31;62896;51.032;3.712;2022-09-21T07:27:59;11;88
74458;SHT31;62896;51.032;3.712;2022-09-21T07:31:19;11.4;87
74458;SHT31;62896;51.032;3.712;2022-09-21T07:34:39;11.4;87
74458;SHT31;62896;51.032;3.712;2022-09-21T07:38:00;11.4;87
74458;SHT31;62896;51.032;3.712;2022-09-21T07:41:19;12;85
74458;SHT31;62896;51.032;3.712;2022-09-21T07:44:39;12;85
74458;SHT31;62896;51.032;3.712;2022-09-21T07:48:01;12;85
74458;SHT31;62896;51.032;3.712;2022-09-21T07:51:19;12.6;83
74458;SHT31;62896;51.032;3.712;2022-09-21T07:54:39;12.6;83
74458;SHT31;62896;51.032;3.712;2022-09-21T07:57:59;12.6;83
74458;SHT31;62896;51.032;3.712;2022-09-21T08:01:19;13.1;79
74458;SHT31;62896;51.032;3.712;2022-09-21T08:04:39;13.1;79
74458;SHT31;62896;51.032;3.712;2022-09-21T08:07:59;13.1;79
74458;SHT31;62896;51.032;3.712;2022-09-21T08:11:20;13.5;77
74458;SHT31;62896;51.032;3.712;2022-09-21T08:14:39;13.5;77
74458;SHT31;62896;51.032;3.712;2022-09-21T08:17:59;13.5;77
74458;SHT31;62896;51.032;3.712;2022-09-21T08:21:19;13.8;75
74458;SHT31;62896;51.032;3.712;2022-09-21T08:24:39;13.8;75
74458;SHT31;62896;51.032;3.712;2022-09-21T08:27:59;13.8;75
74458;SHT31;62896;51.032;3.712;2022-09-21T08:31:20;14.2;74
74458;SHT31;62896;51.032;3.712;2022-09-21T08:34:39;14.2;74
74458;SHT31;62896;51.032;3.712;2022-09-21T08:37:59;14.2;74
74458;SHT31;62896;51.032;3.712;2022-09-21T08:41:21;14.4;73
74458;SHT31;62896;51.032;3.712;2022-09-21T08:44:40;14.4;73
74458;SHT31;62896;51.032;3.712;2022-09-21T08:48:00;14.4;73
74458;SHT31;62896;51.032;3.712;2022-09-21T11:24:42;18.8;47
74458;SHT31;62896;51.032;3.712;2022-09-21T11:28:01;18.8;47
74458;SHT31;62896;51.032;3.712;2022-09-21T11:31:33;18.1;47
74458;SHT31;62896;51.032;3.712;2022-09-21T11:34:44;18.1;43
74458;SHT31;62896;51.032;3.712;2022-09-21T11:54:44;19.1;41
74458;SHT31;62896;51.032;3.712;2022-09-21T11:58:00;19.1;41
74458;SHT31;62896;51.032;3.712;2022-09-21T12:18:01;19.4;43
74458;SHT31;62896;51.032;3.712;2022-09-21T12:21:20;19.2;43
74458;SHT31;62896;51.032;3.712;2022-09-21T12:24:41;19.2;43
74458;SHT31;62896;51.032;3.712;2022-09-21T12:28:01;19.2;43
74458;SHT31;62896;51.032;3.712;2022-09-21T12:38:00;19.2;44
74458;SHT31;62896;51.032;3.712;2022-09-21T12:41:22;18.8;44
74458;SHT31;62896;51.032;3.712;2022-09-21T12:44:41;18.8;44
74458;SHT31;62896;51.032;3.712;2022-09-21T12:48:01;18.8;44
74458;SHT31;62896;51.032;3.712;2022-09-21T12:51:21;19.4;44
74458;SHT31;62896;51.032;3.712;2022-09-21T12:54:41;19.4;44
74458;SHT31;62896;51.032;3.712;2022-09-21T12:58:00;19.4;44
74458;SHT31;62896;51.032;3.712;2022-09-21T13:01:23;19.6;44
74458;SHT31;62896;51.032;3.712;2022-09-21T13:04:44;19.6;44
74458;SHT31;62896;51.032;3.712;2022-09-21T13:08:02;19.6;41
74458;SHT31;62896;51.032;3.712;2022-09-21T13:28:02;18.4;47
74458;SHT31;62896;51.032;3.712;2022-09-21T13:31:28;19.2;47
74458;SHT31;62896;51.032;3.712;2022-09-21T13:34:40;19.2;47
74458;SHT31;62896;51.032;3.712;2022-09-21T13:38:32;19.2;43
74458;SHT31;62896;51.032;3.712;2022-09-21T13:41:23;20.6;43
74458;SHT31;62896;51.032;3.712;2022-09-21T13:44:40;20.6;43
74458;SHT31;62896;51.032;3.712;2022-09-21T13:47:59;20.6;42
74458;SHT31;62896;51.032;3.712;2022-09-21T13:51:19;21.3;42
74458;SHT31;62896;51.032;3.712;2022-09-21T13:54:44;21.3;42
74458;SHT31;62896;51.032;3.712;2022-09-21T13:58:00;21.3;40
74458;SHT31;62896;51.032;3.712;2022-09-21T14:01:20;21.1;40
74458;SHT31;62896;51.032;3.712;2022-09-21T14:04:39;21.1;40
74458;SHT31;62896;51.032;3.712;2022-09-21T14:08:00;21.1;37
74458;SHT31;62896;51.032;3.712;2022-09-21T14:11:21;22.6;37
74458;SHT31;62896;51.032;3.712;2022-09-21T14:14:39;22.6;37
74458;SHT31;62896;51.032;3.712;2022-09-21T14:18:08;22.6;35
74458;SHT31;62896;51.032;3.712;2022-09-21T14:21:20;23;35
74458;SHT31;62896;51.032;3.712;2022-09-21T14:24:40;23;35
74458;SHT31;62896;51.032;3.712;2022-09-21T14:28:02;23;39
74458;SHT31;62896;51.032;3.712;2022-09-21T14:31:20;20.3;39
74458;SHT31;62896;51.032;3.712;2022-09-21T14:34:39;20.3;39
74458;SHT31;62896;51.032;3.712;2022-09-21T14:38:00;20.3;43
74458;SHT31;62896;51.032;3.712;2022-09-21T14:41:20;19;43
74458;SHT31;62896;51.032;3.712;2022-09-21T14:44:39;19;43
74458;SHT31;62896;51.032;3.712;2022-09-21T14:48:02;19;45
74458;SHT31;62896;51.032;3.712;2022-09-21T14:51:21;18.6;45
74458;SHT31;62896;51.032;3.712;2022-09-21T14:54:42;18.6;45
74458;SHT31;62896;51.032;3.712;2022-09-21T14:58:18;18.6;46
74458;SHT31;62896;51.032;3.712;2022-09-21T15:01:20;18.2;46
74458;SHT31;62896;51.032;3.712;2022-09-21T15:04:42;18.2;46
74458;SHT31;62896;51.032;3.712;2022-09-21T15:08:05;18.2;47
74458;SHT31;62896;51.032;3.712;2022-09-21T15:11:21;18.1;47
74458;SHT31;62896;51.032;3.712;2022-09-21T15:14:39;18.1;47
74458;SHT31;62896;51.032;3.712;2022-09-21T15:18:00;18.1;43
74458;SHT31;62896;51.032;3.712;2022-09-21T15:21:20;21.2;43
74458;SHT31;62896;51.032;3.712;2022-09-21T15:24:47;21.2;43
74458;SHT31;62896;51.032;3.712;2022-09-21T15:27:59;21.2;38
74458;SHT31;62896;51.032;3.712;2022-09-21T15:31:19;20.7;38
74458;SHT31;62896;51.032;3.712;2022-09-21T15:34:39;20.7;38
74458;SHT31;62896;51.032;3.712;2022-09-21T15:37:59;20.7;43
74458;SHT31;62896;51.032;3.712;2022-09-21T15:41:35;18.6;43
74458;SHT31;62896;51.032;3.712;2022-09-21T15:44:39;18.6;43
74458;SHT31;62896;51.032;3.712;2022-09-21T15:47:59;18.6;45
74458;SHT31;62896;51.032;3.712;2022-09-21T15:51:22;18.2;45
74458;SHT31;62896;51.032;3.712;2022-09-21T15:54:40;18.2;45
74458;SHT31;62896;51.032;3.712;2022-09-21T15:57:59;18.2;46
74458;SHT31;62896;51.032;3.712;2022-09-21T16:01:20;18;46
74458;SHT31;62896;51.032;3.712;2022-09-21T16:04:41;18;46
74458;SHT31;62896;51.032;3.712;2022-09-21T16:08:03;18;45
74458;SHT31;62896;51.032;3.712;2022-09-21T16:11:19;18.1;45
74458;SHT31;62896;51.032;3.712;2022-09-21T16:14:42;18.1;45
74458;SHT31;62896;51.032;3.712;2022-09-21T16:18:00;18.1;45
74458;SHT31;62896;51.032;3.712;2022-09-21T16:21:20;18.3;45
74458;SHT31;62896;51.032;3.712;2022-09-21T16:24:42;18.3;45
74458;SHT31;62896;51.032;3.712;2022-09-21T16:28:00;18.3;45
74458;SHT31;62896;51.032;3.712;2022-09-21T16:31:22;18.1;45
74458;SHT31;62896;51.032;3.712;2022-09-21T16:34:39;18.1;45
74458;SHT31;62896;51.032;3.712;2022-09-21T16:37:59;18.1;46
74458;SHT31;62896;51.032;3.712;2022-09-21T16:41:19;17.7;46
74458;SHT31;62896;51.032;3.712;2022-09-21T16:44:39;17.7;46
74458;SHT31;62896;51.032;3.712;2022-09-21T16:47:59;17.7;46
74458;SHT31;62896;51.032;3.712;2022-09-21T16:51:19;17.4;46
74458;SHT31;62896;51.032;3.712;2022-09-21T17:07:59;17.1;49
74458;SHT31;62896;51.032;3.712;2022-09-21T17:11:19;16.9;49
74458;SHT31;62896;51.032;3.712;2022-09-21T17:14:39;16.9;49
74458;SHT31;62896;51.032;3.712;2022-09-21T17:17:59;16.9;50
74458;SHT31;62896;51.032;3.712;2022-09-21T17:21:19;16.8;50
74458;SHT31;62896;51.032;3.712;2022-09-21T17:24:39;16.8;50
74458;SHT31;62896;51.032;3.712;2022-09-21T17:27:59;16.8;50
74458;SHT31;62896;51.032;3.712;2022-09-21T17:31:19;16.7;50
74458;SHT31;62896;51.032;3.712;2022-09-21T17:34:39;16.7;50
74458;SHT31;62896;51.032;3.712;2022-09-21T17:37:59;16.7;52
74458;SHT31;62896;51.032;3.712;2022-09-21T17:41:22;16.6;52
74458;SHT31;62896;51.032;3.712;2022-09-21T17:44:57;16.6;52
74458;SHT31;62896;51.032;3.712;2022-09-21T17:47:59;16.6;53
74458;SHT31;62896;51.032;3.712;2022-09-21T17:51:19;16.4;53
74458;SHT31;62896;51.032;3.712;2022-09-21T17:54:39;16.4;53
74458;SHT31;62896;51.032;3.712;2022-09-21T17:58:03;16.4;55
74458;SHT31;62896;51.032;3.712;2022-09-21T18:01:21;16.1;55
74458;SHT31;62896;51.032;3.712;2022-09-21T18:04:39;16.1;55
74458;SHT31;62896;51.032;3.712;2022-09-21T18:07:59;16.1;58
74458;SHT31;62896;51.032;3.712;2022-09-21T18:11:29;15.8;58
74458;SHT31;62896;51.032;3.712;2022-09-21T18:14:42;15.8;58
74458;SHT31;62896;51.032;3.712;2022-09-21T18:18:02;15.8;57
74458;SHT31;62896;51.032;3.712;2022-09-21T18:21:19;15.7;57
74458;SHT31;62896;51.032;3.712;2022-09-21T18:24:39;15.7;57
74458;SHT31;62896;51.032;3.712;2022-09-21T18:28:01;15.7;57
74458;SHT31;62896;51.032;3.712;2022-09-21T18:31:23;15.6;57
74458;SHT31;62896;51.032;3.712;2022-09-21T18:34:44;15.6;57
74458;SHT31;62896;51.032;3.712;2022-09-21T18:38:01;15.6;57
74458;SHT31;62896;51.032;3.712;2022-09-21T18:41:21;15.4;57
74458;SHT31;62896;51.032;3.712;2022-09-21T18:44:40;15.4;57
74458;SHT31;62896;51.032;3.712;2022-09-21T18:48:04;15.4;58
74458;SHT31;62896;51.032;3.712;2022-09-21T18:51:21;15.2;58
74458;SHT31;62896;51.032;3.712;2022-09-21T18:54:39;15.2;58
74458;SHT31;62896;51.032;3.712;2022-09-21T18:57:59;15.2;58
74458;SHT31;62896;51.032;3.712;2022-09-21T19:01:19;15.1;58
74458;SHT31;62896;51.032;3.712;2022-09-21T19:04:39;15.1;58
74458;SHT31;62896;51.032;3.712;2022-09-21T19:08:00;15.1;59
74458;SHT31;62896;51.032;3.712;2022-09-21T19:11:19;15;59
74458;SHT31;62896;51.032;3.712;2022-09-21T19:14:42;15;59
74458;SHT31;62896;51.032;3.712;2022-09-21T19:18:04;15;59
74458;SHT31;62896;51.032;3.712;2022-09-21T19:21:21;14.9;59
74458;SHT31;62896;51.032;3.712;2022-09-21T19:24:40;14.9;59
74458;SHT31;62896;51.032;3.712;2022-09-21T19:27:59;14.9;60
74458;SHT31;62896;51.032;3.712;2022-09-21T19:31:19;14.8;60
74458;SHT31;62896;51.032;3.712;2022-09-21T19:34:39;14.8;60
74458;SHT31;62896;51.032;3.712;2022-09-21T19:37:59;14.8;61
74458;SHT31;62896;51.032;3.712;2022-09-21T19:41:27;14.6;61
74458;SHT31;62896;51.032;3.712;2022-09-21T19:44:43;14.6;61
74458;SHT31;62896;51.032;3.712;2022-09-21T19:48:01;14.6;62
74458;SHT31;62896;51.032;3.712;2022-09-21T19:51:22;14.5;62
74458;SHT31;62896;51.032;3.712;2022-09-21T19:54:39;14.5;62
74458;SHT31;62896;51.032;3.712;2022-09-21T19:57:59;14.5;62
74458;SHT31;62896;51.032;3.712;2022-09-21T20:01:19;14.4;62
74458;SHT31;62896;51.032;3.712;2022-09-21T20:04:40;14.4;62
74458;SHT31;62896;51.032;3.712;2022-09-21T20:08:00;14.4;64
74458;SHT31;62896;51.032;3.712;2022-09-21T20:11:19;14.2;64
74458;SHT31;62896;51.032;3.712;2022-09-21T20:14:40;14.2;64
74458;SHT31;62896;51.032;3.712;2022-09-21T20:18:00;14.2;65
74458;SHT31;62896;51.032;3.712;2022-09-21T20:21:19;13.9;65
74458;SHT31;62896;51.032;3.712;2022-09-21T20:24:42;13.9;65
74458;SHT31;62896;51.032;3.712;2022-09-21T20:27:59;13.9;68
74458;SHT31;62896;51.032;3.712;2022-09-21T20:31:19;13.6;68
74458;SHT31;62896;51.032;3.712;2022-09-21T20:34:39;13.6;68
74458;SHT31;62896;51.032;3.712;2022-09-21T20:37:59;13.6;69
74458;SHT31;62896;51.032;3.712;2022-09-21T20:41:19;13.4;69
74458;SHT31;62896;51.032;3.712;2022-09-21T20:44:39;13.4;69
74458;SHT31;62896;51.032;3.712;2022-09-21T20:47:59;13.4;71
74458;SHT31;62896;51.032;3.712;2022-09-21T20:51:19;13.1;71
74458;SHT31;62896;51.032;3.712;2022-09-21T20:54:39;13.1;71
74458;SHT31;62896;51.032;3.712;2022-09-21T20:57:59;13.1;73
74458;SHT31;62896;51.032;3.712;2022-09-21T21:01:19;12.9;73
74458;SHT31;62896;51.032;3.712;2022-09-21T21:04:39;12.9;73
74458;SHT31;62896;51.032;3.712;2022-09-21T21:07:59;12.9;74
74458;SHT31;62896;51.032;3.712;2022-09-21T21:11:19;12.7;74
74458;SHT31;62896;51.032;3.712;2022-09-21T21:14:39;12.7;74
74458;SHT31;62896;51.032;3.712;2022-09-21T21:17:59;12.7;75
74458;SHT31;62896;51.032;3.712;2022-09-21T21:21:19;12.6;75
74458;SHT31;62896;51.032;3.712;2022-09-21T21:24:39;12.6;75
74458;SHT31;62896;51.032;3.712;2022-09-21T21:27:59;12.6;75
74458;SHT31;62896;51.032;3.712;2022-09-21T21:31:19;12.5;75
74458;SHT31;62896;51.032;3.712;2022-09-21T21:34:39;12.5;75
74458;SHT31;62896;51.032;3.712;2022-09-21T21:37:59;12.5;77
74458;SHT31;62896;51.032;3.712;2022-09-21T21:41:19;12.2;77
74458;SHT31;62896;51.032;3.712;2022-09-21T21:44:39;12.2;77
74458;SHT31;62896;51.032;3.712;2022-09-21T21:47:59;12.2;78
74458;SHT31;62896;51.032;3.712;2022-09-21T21:51:19;12.1;78
74458;SHT31;62896;51.032;3.712;2022-09-21T21:54:39;12.1;78
74458;SHT31;62896;51.032;3.712;2022-09-21T21:57:59;12.1;78
74458;SHT31;62896;51.032;3.712;2022-09-21T22:01:20;12;78
74458;SHT31;62896;51.032;3.712;2022-09-21T22:04:39;12;78
74458;SHT31;62896;51.032;3.712;2022-09-21T22:07:59;12;79
74458;SHT31;62896;51.032;3.712;2022-09-21T22:11:19;11.9;79
74458;SHT31;62896;51.032;3.712;2022-09-21T22:14:39;11.9;79
74458;SHT31;62896;51.032;3.712;2022-09-21T22:17:59;11.9;79
74458;SHT31;62896;51.032;3.712;2022-09-21T22:21:20;11.8;79
74458;SHT31;62896;51.032;3.712;2022-09-21T22:24:39;11.8;79
74458;SHT31;62896;51.032;3.712;2022-09-21T22:27:59;11.8;80
74458;SHT31;62896;51.032;3.712;2022-09-21T22:31:20;11.6;80
74458;SHT31;62896;51.032;3.712;2022-09-21T22:34:39;11.6;80
74458;SHT31;62896;51.032;3.712;2022-09-21T22:37:59;11.6;80
74458;SHT31;62896;51.032;3.712;2022-09-21T22:41:20;11.6;80
74458;SHT31;62896;51.032;3.712;2022-09-21T22:44:39;11.6;80
74458;SHT31;62896;51.032;3.712;2022-09-21T22:47:59;11.6;81
74458;SHT31;62896;51.032;3.712;2022-09-21T22:51:19;11.5;81
74458;SHT31;62896;51.032;3.712;2022-09-21T22:54:39;11.5;81
74458;SHT31;62896;51.032;3.712;2022-09-21T22:57:59;11.5;81
74458;SHT31;62896;51.032;3.712;2022-09-21T23:01:20;11.4;81
74458;SHT31;62896;51.032;3.712;2022-09-21T23:04:39;11.4;81
74458;SHT31;62896;51.032;3.712;2022-09-21T23:07:59;11.4;81
74458;SHT31;62896;51.032;3.712;2022-09-21T23:11:20;11.4;81
74458;SHT31;62896;51.032;3.712;2022-09-21T23:14:39;11.4;81
74458;SHT31;62896;51.032;3.712;2022-09-21T23:17:59;11.4;80
74458;SHT31;62896;51.032;3.712;2022-09-21T23:21:19;11.4;80
74458;SHT31;62896;51.032;3.712;2022-09-21T23:24:39;11.4;80
74458;SHT31;62896;51.032;3.712;2022-09-21T23:27:59;11.4;81
74458;SHT31;62896;51.032;3.712;2022-09-21T23:31:19;11.3;81
74458;SHT31;62896;51.032;3.712;2022-09-21T23:34:39;11.3;81
74458;SHT31;62896;51.032;3.712;2022-09-21T23:37:59;11.3;81
74458;SHT31;62896;51.032;3.712;2022-09-21T23:41:20;11.2;81
74458;SHT31;62896;51.032;3.712;2022-09-21T23:44:39;11.2;81
74458;SHT31;62896;51.032;3.712;2022-09-21T23:47:59;11.2;82
74458;SHT31;62896;51.032;3.712;2022-09-21T23:51:19;11.1;82
74458;SHT31;62896;51.032;3.712;2022-09-21T23:54:39;11.1;82
74458;SHT31;62896;51.032;3.712;2022-09-21T23:57:59;11.1;82
